Salt Flat, TX (79847)

12:14 PM MDT on September 02, 2014 (GMT -0600)
APRSWXNET Dellcity TX US | Change Station
CLOSE
Current Station
Personal Weather Station
Location: Salt Flat, TX
Elevation: 3690 ft
Nearby Weather Stations

Elev 3690 ft 31.73 °N, 104.93 °W | Updated 41 minutes ago

Clear
Clear
93 °F
Feels Like 89 °F
N
0
Wind Variable Wind from WNW
Gusts 5.0 mph

Today
High -- | Low -- °F
--% Chance of Precip.
Yesterday
High -- | Low -- °F
Precip. -- in
6:36 AM 7:22 PM
First Quarter, 53% visible
Pressure 29.85 in
Visibility 9.0 miles
Clouds Clear
Heat Index 89 °F
Dew Point 45 °F
Humidity 19%
Rainfall 0.00 in
Snow Depth Not available.
UV 11 out of 12
Pollen 9.70 out of 12
Air Quality Not available.
Flu Activity Not available.
METAR KGDP 021751Z AUTO 23012KT 9SM CLR 33/04 A3016 RMK AO2 SLP106 T03330039 10339 20217 50001

More Conditions Fewer Conditions

Pressure 29.85 in
Visibility 9.0 miles
Clouds Clear
Heat Index 89 °F
Dew Point 45 °F
Humidity 19%
Rainfall 0.00 in
Snow Depth Not available.
UV 11 out of 12
Pollen 9.70 out of 12
Air Quality Not available.
Flu Activity Not available.
METAR KGDP 021751Z AUTO 23012KT 9SM CLR 33/04 A3016 RMK AO2 SLP106 T03330039 10339 20217 50001

More Conditions Fewer Conditions

10-Day Weather Forecast

Almanac

Astronomy

Sep. 02, 2014 Rise Set
Actual Time 6:36 AM MDT 7:22 PM MDT
Civil Twilight 6:11 AM MDT 7:47 PM MDT
Nautical Twilight 5:42 AM MDT 8:16 PM MDT
Astronomical Twilight 5:12 AM MDT 8:46 PM MDT
Moon 1:57 PM MDT No Moon Set
Length of Visible Light 13h 35m
Length of Day
12h 46m
Tomorrow will be 1m 51s shorter.
First Quarter, 53% of the Moon is Illuminated
Today
First Quarter
Sep 8
Full
Sep 15
Last Quarter
Sep 24
New
Oct 1
First Quarter

Today's Extremes

State Highs State Lows

Community

WunderPhotos

Upload Photos

1,749,723 photos uploaded!

WunderBlogs® & News

Nearby

Snow Depth

Station Depth Elevation
No new snow has been reported.

Earthquake Activity

City Distance Mag. Time & Date
No recent earthquake activity has been reported nearby.
Minimum magnitude displayed is 2.5.

Coastal Water Temperatures

Place Temperature
No Stations Reporting

Nearby Weather Stations